createdAt,value
2017-04-25T00:00:14.478Z,11.05
2017-04-25T00:01:14.153Z,11
2017-04-25T00:02:14.433Z,11
2017-04-25T00:03:14.095Z,10.87
2017-04-25T00:04:14.484Z,10.62
2017-04-25T00:05:13.755Z,10.52
2017-04-25T00:06:14.055Z,10.28
2017-04-25T00:07:13.713Z,10.01
2017-04-25T00:08:13.995Z,9.97
2017-04-25T00:09:14.294Z,10.01
2017-04-25T00:10:14.285Z,10.07
2017-04-25T00:11:14.262Z,10.08
2017-04-25T00:12:14.244Z,10.1
2017-04-25T00:13:14.223Z,10
2017-04-25T00:14:14.204Z,9.79
2017-04-25T00:15:14.161Z,9.78
2017-04-25T00:16:14.133Z,9.8
2017-04-25T00:17:14.125Z,9.54
2017-04-25T00:18:14.115Z,9.49
2017-04-25T00:19:14.098Z,9.56
2017-04-25T00:20:14.063Z,9.56
2017-04-25T00:21:14.054Z,9.46
2017-04-25T00:22:13.711Z,9.54
2017-04-25T00:23:14.000Z,9.49
2017-04-25T00:24:13.676Z,9.27
2017-04-25T00:25:13.945Z,9.43
2017-04-25T00:26:13.629Z,9.37
2017-04-25T00:27:13.913Z,9.45
2017-04-25T00:28:13.606Z,9.54
2017-04-25T00:29:13.872Z,9.58
2017-04-25T00:30:13.861Z,9.52
2017-04-25T00:31:13.527Z,9.38
2017-04-25T00:32:13.504Z,9.43
2017-04-25T00:33:13.787Z,9.38
2017-04-25T00:34:13.470Z,9.31
2017-04-25T00:35:13.766Z,9.35
2017-04-25T00:36:13.424Z,9.29
2017-04-25T00:37:13.395Z,9.25
2017-04-25T00:38:13.395Z,9.35
2017-04-25T00:39:13.353Z,9.37
2017-04-25T00:40:13.642Z,9.35
2017-04-25T00:41:13.652Z,9.19
2017-04-25T00:42:13.599Z,9.27
2017-04-25T00:43:13.281Z,9.29
2017-04-25T00:44:13.251Z,9.35
2017-04-25T00:45:13.558Z,9.45
2017-04-25T00:46:13.510Z,9.38
2017-04-25T00:47:13.475Z,9.46
2017-04-25T00:48:13.473Z,9.47
2017-04-25T00:49:13.443Z,9.46
2017-04-25T00:50:13.125Z,9.62
2017-04-25T00:51:13.399Z,9.71
2017-04-25T00:52:13.067Z,9.72
2017-04-25T00:53:13.066Z,9.78
2017-04-25T00:54:13.033Z,9.8
2017-04-25T00:55:13.322Z,9.75
2017-04-25T00:56:13.285Z,9.67
2017-04-25T00:57:12.753Z,9.61
2017-04-25T00:58:12.644Z,9.67
2017-04-25T00:59:13.002Z,9.58
2017-04-25T01:00:13.220Z,9.52
2017-04-25T01:01:13.191Z,9.61
2017-04-25T01:02:13.178Z,9.62
2017-04-25T01:03:13.146Z,9.78
2017-04-25T01:04:13.135Z,9.85
2017-04-25T01:05:13.103Z,9.71
2017-04-25T01:06:13.097Z,9.62
2017-04-25T01:07:13.062Z,9.64
2017-04-25T01:08:12.734Z,9.58
2017-04-25T01:09:13.018Z,9.52
2017-04-25T01:10:12.700Z,9.47
2017-04-25T01:11:12.784Z,9.54
2017-04-25T01:12:12.725Z,9.47
2017-04-25T01:13:12.945Z,9.38
2017-04-25T01:14:13.272Z,9.35
2017-04-25T01:15:12.913Z,9.31
2017-04-25T01:16:12.873Z,9.42
2017-04-25T01:17:12.875Z,9.45
2017-04-25T01:18:12.833Z,9.6
2017-04-25T01:19:12.813Z,9.6
2017-04-25T01:20:12.796Z,9.54
2017-04-25T01:21:12.772Z,9.54
2017-04-25T01:22:12.754Z,9.6
2017-04-25T01:23:12.423Z,9.64
2017-04-25T01:24:12.122Z,9.67
2017-04-25T01:25:12.682Z,9.75
2017-04-25T01:26:12.044Z,9.67
2017-04-25T01:27:12.324Z,9.64
2017-04-25T01:28:12.330Z,9.72
2017-04-25T01:29:12.594Z,9.87
2017-04-25T01:30:12.585Z,9.78
2017-04-25T01:31:12.247Z,9.71
2017-04-25T01:32:12.234Z,9.47
2017-04-25T01:33:12.222Z,9.6
2017-04-25T01:34:12.194Z,9.61
2017-04-25T01:35:12.473Z,9.62
2017-04-25T01:36:12.462Z,9.64
2017-04-25T01:37:12.432Z,9.58
2017-04-25T01:38:12.411Z,9.62
2017-04-25T01:39:12.385Z,9.61
2017-04-25T01:40:11.746Z,9.71
2017-04-25T01:41:11.733Z,9.79
2017-04-25T01:42:12.324Z,9.71
2017-04-25T01:43:12.310Z,9.83
2017-04-25T01:44:12.282Z,9.78
2017-04-25T01:45:12.273Z,9.75
2017-04-25T01:46:12.234Z,9.71
2017-04-25T01:47:12.214Z,9.75
2017-04-25T01:48:12.210Z,9.75
2017-04-25T01:49:12.177Z,9.62
2017-04-25T01:50:12.158Z,9.65
2017-04-25T01:51:12.144Z,9.54
2017-04-25T01:52:12.120Z,9.58
2017-04-25T01:53:12.084Z,9.64
2017-04-25T01:54:11.760Z,9.43
2017-04-25T01:55:11.752Z,9.45
2017-04-25T01:56:11.733Z,9.56
2017-04-25T01:57:12.001Z,9.52
2017-04-25T01:58:11.690Z,9.53
2017-04-25T01:59:11.658Z,9.49
2017-04-25T02:00:11.935Z,9.53
2017-04-25T02:01:11.929Z,9.49
2017-04-25T02:02:11.598Z,9.53
2017-04-25T02:03:11.573Z,9.53
2017-04-25T02:04:11.862Z,9.6
2017-04-25T02:05:11.542Z,9.54
2017-04-25T02:06:11.210Z,9.5
2017-04-25T02:07:11.803Z,9.47
2017-04-25T02:08:11.767Z,9.58
2017-04-25T02:09:11.148Z,9.58
2017-04-25T02:10:11.736Z,9.58
2017-04-25T02:11:11.703Z,9.52
2017-04-25T02:12:11.680Z,9.56
2017-04-25T02:13:11.653Z,9.5
2017-04-25T02:14:11.337Z,9.56
2017-04-25T02:15:11.313Z,9.6
2017-04-25T02:16:11.602Z,9.62
2017-04-25T02:17:11.265Z,9.6
2017-04-25T02:18:11.253Z,9.62
2017-04-25T02:19:11.230Z,9.65
2017-04-25T02:20:11.208Z,9.6
2017-04-25T02:21:11.503Z,9.64
2017-04-25T02:22:11.173Z,9.45
2017-04-25T02:23:11.151Z,9.42
2017-04-25T02:24:10.824Z,9.45
2017-04-25T02:25:11.127Z,9.35
2017-04-25T02:26:11.088Z,9.37
2017-04-25T02:27:11.054Z,9.25
2017-04-25T02:28:11.043Z,9.34
2017-04-25T02:29:10.714Z,9.21
2017-04-25T02:30:10.995Z,9.14
2017-04-25T02:31:10.664Z,9.05
2017-04-25T02:32:11.276Z,9.13
2017-04-25T02:33:11.304Z,9.19
2017-04-25T02:34:11.217Z,9.21
2017-04-25T02:35:10.913Z,9.19
2017-04-25T02:36:10.874Z,9.17
2017-04-25T02:37:11.160Z,9.1
2017-04-25T02:38:10.822Z,9.14
2017-04-25T02:39:10.914Z,9.17
2017-04-25T02:40:11.184Z,9.17
2017-04-25T02:41:10.752Z,8.9
2017-04-25T02:42:10.752Z,8.87
2017-04-25T02:43:11.022Z,8.93
2017-04-25T02:44:10.997Z,8.93
2017-04-25T02:45:11.043Z,8.9
2017-04-25T02:46:11.052Z,8.75
2017-04-25T02:47:10.959Z,8.5
2017-04-25T02:48:10.954Z,8.7
2017-04-25T02:49:10.965Z,8.62
2017-04-25T02:50:10.943Z,8.77
2017-04-25T02:51:10.591Z,8.79
2017-04-25T02:52:10.825Z,8.88
2017-04-25T02:53:10.190Z,8.88
2017-04-25T02:54:10.183Z,8.88
2017-04-25T02:55:10.504Z,8.8
2017-04-25T02:56:10.433Z,8.75
2017-04-25T02:57:10.104Z,8.87
2017-04-25T02:58:10.395Z,8.59
2017-04-25T02:59:10.384Z,8.62
2017-04-25T03:00:10.760Z,8.7
2017-04-25T03:01:10.682Z,8.79
2017-04-25T03:02:10.314Z,8.8
2017-04-25T03:03:10.285Z,8.69
2017-04-25T03:04:10.262Z,8.76
2017-04-25T03:05:10.234Z,8.8
2017-04-25T03:06:10.576Z,8.72
2017-04-25T03:07:10.203Z,8.72
2017-04-25T03:08:10.567Z,8.72
2017-04-25T03:09:10.479Z,8.66
2017-04-25T03:10:10.133Z,8.55
2017-04-25T03:11:10.110Z,8.37
2017-04-25T03:12:10.098Z,8.34
2017-04-25T03:13:10.068Z,8.42
2017-04-25T03:14:10.041Z,8.58
2017-04-25T03:15:10.329Z,8.65
2017-04-25T03:16:10.014Z,8.48
2017-04-25T03:17:10.282Z,8.58
2017-04-25T03:18:10.378Z,8.52
2017-04-25T03:19:10.246Z,8.54
2017-04-25T03:20:09.923Z,8.4
2017-04-25T03:21:09.891Z,8.45
2017-04-25T03:22:10.178Z,8.47
2017-04-25T03:23:09.850Z,8.48
2017-04-25T03:24:09.826Z,8.33
2017-04-25T03:25:09.827Z,8.33
2017-04-25T03:26:09.783Z,8.34
2017-04-25T03:27:09.757Z,8.42
2017-04-25T03:28:10.046Z,8.5
2017-04-25T03:29:10.019Z,8.66
2017-04-25T03:30:09.993Z,8.62
2017-04-25T03:31:09.674Z,8.7
2017-04-25T03:32:10.016Z,8.76
2017-04-25T03:33:09.621Z,8.69
2017-04-25T03:34:09.615Z,8.69
2017-04-25T03:35:09.885Z,8.65
2017-04-25T03:36:09.856Z,8.48
2017-04-25T03:37:09.834Z,8.54
2017-04-25T03:38:09.644Z,8.67
2017-04-25T03:39:09.865Z,8.55
2017-04-25T03:40:09.895Z,8.45
2017-04-25T03:41:09.442Z,8.42
2017-04-25T03:42:09.244Z,8.5
2017-04-25T03:43:09.713Z,8.47
2017-04-25T03:44:09.122Z,8.45
2017-04-25T03:45:09.671Z,8.45
2017-04-25T03:46:09.770Z,8.42
2017-04-25T03:47:09.613Z,8.3
2017-04-25T03:48:09.728Z,8.32
2017-04-25T03:49:09.283Z,8.37
2017-04-25T03:50:09.338Z,8.48
2017-04-25T03:51:09.549Z,8.51
2017-04-25T03:52:09.514Z,8.51
2017-04-25T03:53:08.895Z,8.57
2017-04-25T03:54:09.172Z,8.67
2017-04-25T03:55:09.454Z,8.58
2017-04-25T03:56:09.143Z,8.58
2017-04-25T03:57:09.424Z,8.47
2017-04-25T03:58:09.084Z,8.21
2017-04-25T03:59:09.352Z,8.21
2017-04-25T04:00:09.054Z,8.22
2017-04-25T04:01:09.315Z,8.09
2017-04-25T04:02:09.300Z,8.21
2017-04-25T04:03:09.026Z,8.24
2017-04-25T04:04:09.274Z,8.39
2017-04-25T04:05:09.223Z,8.42
2017-04-25T04:06:08.996Z,8.33
2017-04-25T04:07:09.354Z,8.25
2017-04-25T04:08:09.182Z,8.39
2017-04-25T04:09:08.523Z,8.24
2017-04-25T04:10:08.806Z,8.34
2017-04-25T04:11:08.901Z,8.39
2017-04-25T04:12:09.115Z,8.22
2017-04-25T04:13:08.792Z,8.24
2017-04-25T04:14:09.040Z,8.21
2017-04-25T04:15:09.000Z,8.01
2017-04-25T04:16:08.668Z,8.12
2017-04-25T04:17:08.670Z,8.19
2017-04-25T04:18:08.630Z,8.15
2017-04-25T04:19:08.932Z,8.24
2017-04-25T04:20:08.579Z,8.21
2017-04-25T04:21:08.862Z,8.29
2017-04-25T04:22:08.843Z,8.37
2017-04-25T04:23:08.823Z,8.4
2017-04-25T04:24:08.812Z,8.34
2017-04-25T04:25:08.184Z,8.37
2017-04-25T04:26:08.443Z,8.3
2017-04-25T04:27:08.723Z,8.3
2017-04-25T04:28:08.104Z,8.4
2017-04-25T04:29:08.719Z,8.45
2017-04-25T04:30:08.662Z,8.34
2017-04-25T04:31:08.468Z,8.4
2017-04-25T04:32:08.313Z,8.34
2017-04-25T04:33:08.632Z,8.21
2017-04-25T04:34:08.572Z,8.33
2017-04-25T04:35:08.253Z,8.29
2017-04-25T04:36:08.222Z,8.32
2017-04-25T04:37:08.202Z,8.29
2017-04-25T04:38:07.886Z,8.4
2017-04-25T04:39:08.209Z,8.36
2017-04-25T04:40:08.134Z,8.51
2017-04-25T04:41:08.124Z,8.55
2017-04-25T04:42:07.792Z,8.52
2017-04-25T04:43:08.376Z,8.58
2017-04-25T04:44:08.351Z,8.51
2017-04-25T04:45:08.031Z,8.4
2017-04-25T04:46:07.712Z,8.32
2017-04-25T04:47:08.299Z,8.19
2017-04-25T04:48:07.962Z,8.36
2017-04-25T04:49:07.946Z,8.34
2017-04-25T04:50:08.222Z,8.37
2017-04-25T04:51:08.214Z,8.34
2017-04-25T04:52:08.172Z,8.37
2017-04-25T04:53:07.852Z,8.27
2017-04-25T04:54:08.144Z,8.18
2017-04-25T04:55:07.794Z,8.16
2017-04-25T04:56:08.083Z,8.01
2017-04-25T04:57:08.064Z,8.06
2017-04-25T04:58:07.736Z,8.22
2017-04-25T04:59:07.414Z,8.16
2017-04-25T05:00:07.694Z,8.36
2017-04-25T05:01:07.364Z,8.37
2017-04-25T05:02:07.662Z,8.39
2017-04-25T05:03:07.940Z,8.29
2017-04-25T05:04:07.945Z,8.27
2017-04-25T05:05:07.571Z,8.24
2017-04-25T05:06:07.577Z,8.32
2017-04-25T05:07:07.564Z,8.22
2017-04-25T05:08:07.542Z,8.4
2017-04-25T05:09:07.508Z,8.43
2017-04-25T05:10:07.493Z,8.47
2017-04-25T05:11:07.454Z,8.48
2017-04-25T05:12:07.431Z,8.61
2017-04-25T05:13:07.446Z,8.65
2017-04-25T05:14:07.736Z,8.75
2017-04-25T05:15:07.652Z,8.76
2017-04-25T05:16:07.352Z,8.73
2017-04-25T05:17:07.621Z,8.72
2017-04-25T05:18:07.616Z,8.67
2017-04-25T05:19:07.624Z,8.67
2017-04-25T05:20:07.355Z,8.73
2017-04-25T05:21:06.930Z,8.69
2017-04-25T05:22:07.576Z,8.76
2017-04-25T05:23:07.496Z,8.88
2017-04-25T05:24:07.527Z,8.9
2017-04-25T05:25:07.456Z,9
2017-04-25T05:26:07.426Z,9.03
2017-04-25T05:27:06.798Z,8.97
2017-04-25T05:28:07.501Z,8.9
2017-04-25T05:29:07.051Z,8.93
2017-04-25T05:30:07.364Z,9.02
2017-04-25T05:31:07.335Z,8.87
2017-04-25T05:32:06.992Z,8.98
2017-04-25T05:33:06.972Z,9
2017-04-25T05:34:07.345Z,9.02
2017-04-25T05:35:07.279Z,8.93
2017-04-25T05:36:06.894Z,8.93
2017-04-25T05:37:06.903Z,8.85
2017-04-25T05:38:06.856Z,8.79
2017-04-25T05:39:06.514Z,8.83
2017-04-25T05:40:07.114Z,8.79
2017-04-25T05:41:06.794Z,8.88
2017-04-25T05:42:07.122Z,8.88
2017-04-25T05:43:07.056Z,8.9
2017-04-25T05:44:07.233Z,9
2017-04-25T05:45:07.075Z,8.97
2017-04-25T05:46:07.044Z,8.93
2017-04-25T05:47:06.977Z,8.93
2017-04-25T05:48:07.003Z,8.9
2017-04-25T05:49:06.931Z,8.95
2017-04-25T05:50:06.639Z,9.05
2017-04-25T05:51:06.925Z,9.03
2017-04-25T05:52:06.912Z,9.22
2017-04-25T05:53:06.893Z,9.19
2017-04-25T05:54:06.614Z,9.14
2017-04-25T05:55:06.484Z,9.06
2017-04-25T05:56:06.863Z,9.03
2017-04-25T05:57:06.750Z,9.06
2017-04-25T05:58:06.486Z,9.02
2017-04-25T05:59:06.394Z,9.03
2017-04-25T06:00:06.723Z,9.1
2017-04-25T06:01:06.362Z,9.17
2017-04-25T06:02:06.653Z,9.17
2017-04-25T06:03:06.632Z,9.42
2017-04-25T06:04:06.315Z,9.31
2017-04-25T06:05:06.279Z,9.35
2017-04-25T06:06:06.561Z,9.31
2017-04-25T06:07:05.926Z,9.27
2017-04-25T06:08:06.515Z,9.29
2017-04-25T06:09:06.205Z,9.27
2017-04-25T06:10:06.163Z,9.42
2017-04-25T06:11:06.161Z,9.35
2017-04-25T06:12:06.432Z,9.31
2017-04-25T06:13:06.413Z,9.28
2017-04-25T06:14:06.388Z,9.38
2017-04-25T06:15:06.359Z,9.35
2017-04-25T06:16:06.052Z,9.49
2017-04-25T06:17:06.317Z,9.46
2017-04-25T06:18:06.286Z,9.47
2017-04-25T06:19:06.292Z,9.52
2017-04-25T06:20:05.952Z,9.56
2017-04-25T06:21:06.254Z,9.6
2017-04-25T06:22:05.934Z,9.65
2017-04-25T06:23:06.284Z,9.56
2017-04-25T06:24:06.189Z,9.46
2017-04-25T06:25:05.864Z,9.46
2017-04-25T06:26:05.841Z,9.42
2017-04-25T06:27:05.821Z,9.45
2017-04-25T06:28:05.796Z,9.49
2017-04-25T06:29:06.079Z,9.32
2017-04-25T06:30:06.062Z,9.34
2017-04-25T06:31:05.788Z,9.32
2017-04-25T06:32:05.710Z,9.31
2017-04-25T06:33:05.983Z,9.4
2017-04-25T06:34:05.964Z,9.43
2017-04-25T06:35:05.964Z,9.43
2017-04-25T06:36:05.613Z,9.52
2017-04-25T06:37:05.681Z,9.47
2017-04-25T06:38:05.592Z,9.35
2017-04-25T06:39:05.926Z,9.4
2017-04-25T06:40:05.848Z,9.22
2017-04-25T06:41:05.524Z,9.28
2017-04-25T06:42:05.499Z,9.24
2017-04-25T06:43:05.849Z,9.24
2017-04-25T06:44:05.760Z,9.06
2017-04-25T06:45:05.740Z,9.02
2017-04-25T06:46:05.716Z,8.97
2017-04-25T06:47:05.403Z,8.94
2017-04-25T06:48:05.062Z,9.02
2017-04-25T06:49:05.655Z,9.06
2017-04-25T06:50:05.319Z,9.25
2017-04-25T06:51:05.005Z,9.35
2017-04-25T06:52:04.963Z,9.42
2017-04-25T06:53:05.579Z,9.61
2017-04-25T06:54:05.283Z,9.45
2017-04-25T06:55:05.228Z,9.35
2017-04-25T06:56:04.892Z,9.45
2017-04-25T06:57:05.486Z,9.49
2017-04-25T06:58:05.468Z,9.58
2017-04-25T06:59:05.144Z,9.56
2017-04-25T07:00:05.406Z,9.56
2017-04-25T07:01:05.404Z,9.49
2017-04-25T07:02:05.374Z,9.42
2017-04-25T07:03:05.054Z,9.5
2017-04-25T07:04:05.342Z,9.45
2017-04-25T07:05:05.113Z,9.53
2017-04-25T07:06:05.303Z,9.7
2017-04-25T07:07:04.970Z,9.83
2017-04-25T07:08:05.250Z,9.93
2017-04-25T07:09:05.276Z,9.89
2017-04-25T07:10:05.206Z,9.78
2017-04-25T07:11:05.194Z,9.87
2017-04-25T07:12:05.178Z,9.9
2017-04-25T07:13:05.152Z,9.71
2017-04-25T07:14:04.522Z,9.74
2017-04-25T07:15:05.115Z,9.9
2017-04-25T07:16:05.098Z,10.05
2017-04-25T07:17:05.076Z,10.04
2017-04-25T07:18:05.051Z,10.05
2017-04-25T07:19:05.055Z,10.08
2017-04-25T07:20:04.742Z,10.13
2017-04-25T07:21:04.694Z,10.13
2017-04-25T07:22:05.009Z,10.34
2017-04-25T07:23:04.964Z,10.34
2017-04-25T07:24:04.654Z,10.38
2017-04-25T07:25:04.945Z,10.3
2017-04-25T07:26:04.908Z,10.15
2017-04-25T07:27:04.590Z,10.15
2017-04-25T07:28:04.561Z,10.18
2017-04-25T07:29:04.855Z,10.41
2017-04-25T07:30:04.613Z,10.72
2017-04-25T07:31:04.493Z,11.17
2017-04-25T07:32:04.795Z,11.26
2017-04-25T07:33:04.772Z,11.73
2017-04-25T07:34:04.773Z,12.2
2017-04-25T07:35:04.741Z,12.78
2017-04-25T07:36:04.733Z,12.68
2017-04-25T07:37:04.698Z,12.83
2017-04-25T07:38:04.693Z,13.4
2017-04-25T07:39:04.362Z,12.02
2017-04-25T07:40:04.653Z,11.98
2017-04-25T07:41:04.368Z,12.21
2017-04-25T07:42:04.628Z,12.81
2017-04-25T07:43:04.313Z,12.86
2017-04-25T07:44:04.604Z,13.21
2017-04-25T07:45:04.604Z,13.65
2017-04-25T07:46:04.571Z,14.46
2017-04-25T07:47:04.556Z,14.47
2017-04-25T07:48:04.551Z,14.66
2017-04-25T07:49:04.544Z,14.4
2017-04-25T07:50:04.528Z,14.2
2017-04-25T07:51:04.515Z,13.96
2017-04-25T07:52:04.509Z,13.88
2017-04-25T07:53:04.487Z,13.19
2017-04-25T07:54:04.173Z,12.68
2017-04-25T07:55:04.461Z,12.16
2017-04-25T07:56:04.152Z,11.91
2017-04-25T07:57:04.446Z,11.66
2017-04-25T07:58:04.415Z,11.4
2017-04-25T07:59:04.094Z,12.02
2017-04-25T08:00:04.082Z,12.83
2017-04-25T08:01:04.422Z,13.11
2017-04-25T08:02:04.364Z,13.57
2017-04-25T08:03:04.393Z,13.35
2017-04-25T08:04:04.353Z,13.16
2017-04-25T08:05:04.324Z,13.21
2017-04-25T08:06:04.014Z,13.95
2017-04-25T08:07:03.690Z,14.57
2017-04-25T08:08:03.985Z,14.82
2017-04-25T08:09:04.284Z,14.4
2017-04-25T08:10:03.948Z,13.75
2017-04-25T08:11:04.250Z,13.08
2017-04-25T08:12:04.244Z,12.5
2017-04-25T08:13:04.233Z,12.24
2017-04-25T08:14:03.908Z,12.86
2017-04-25T08:15:03.903Z,13.78
2017-04-25T08:16:04.194Z,14.02
2017-04-25T08:17:04.259Z,13.72
2017-04-25T08:18:04.160Z,13.7
2017-04-25T08:19:04.156Z,13.66
2017-04-25T08:20:03.840Z,13.52
2017-04-25T08:21:03.826Z,13.7
2017-04-25T08:22:04.122Z,13.74
2017-04-25T08:23:04.094Z,13.38
2017-04-25T08:24:04.122Z,13.01
2017-04-25T08:25:04.077Z,12.55
2017-04-25T08:26:03.778Z,11.91
2017-04-25T08:27:04.043Z,11.89
2017-04-25T08:28:04.337Z,11.84
2017-04-25T08:29:03.405Z,11.99
2017-04-25T08:30:03.996Z,11.95
2017-04-25T08:31:04.003Z,11.83
2017-04-25T08:32:03.995Z,11.69
2017-04-25T08:33:03.945Z,11.75
2017-04-25T08:34:03.692Z,11.4
2017-04-25T08:35:03.950Z,11.35
2017-04-25T08:36:03.594Z,11.17
2017-04-25T08:37:03.892Z,11.02
2017-04-25T08:38:03.314Z,11.08
2017-04-25T08:39:03.551Z,11.38
2017-04-25T08:40:03.845Z,11.76
2017-04-25T08:41:03.835Z,11.97
2017-04-25T08:42:03.819Z,12.16
2017-04-25T08:43:03.804Z,12.46
2017-04-25T08:44:03.774Z,12.64
2017-04-25T08:45:03.465Z,12.49
2017-04-25T08:46:03.147Z,12.34
2017-04-25T08:47:03.732Z,12.09
2017-04-25T08:48:03.716Z,11.98
2017-04-25T08:49:03.395Z,11.83
2017-04-25T08:50:03.703Z,11.87
2017-04-25T08:51:03.674Z,11.87
2017-04-25T08:52:03.349Z,11.94
2017-04-25T08:53:03.641Z,12.07
2017-04-25T08:54:03.103Z,12.06
2017-04-25T08:55:03.591Z,12.28
2017-04-25T08:56:03.310Z,12.48
2017-04-25T08:57:02.954Z,12.73
2017-04-25T08:58:03.271Z,12.63
2017-04-25T08:59:03.547Z,12.31
2017-04-25T09:00:02.972Z,12.16
2017-04-25T09:01:03.313Z,11.73
2017-04-25T09:02:03.495Z,11.75
2017-04-25T09:03:03.242Z,12.34
2017-04-25T09:04:03.159Z,12.68
2017-04-25T09:05:03.142Z,12.78
2017-04-25T09:06:03.432Z,12.61
2017-04-25T09:07:03.418Z,12.42
2017-04-25T09:08:03.179Z,12.2
2017-04-25T09:09:03.233Z,12.16
2017-04-25T09:10:03.374Z,11.58
2017-04-25T09:11:03.366Z,11.6
2017-04-25T09:12:03.052Z,11.84
2017-04-25T09:13:02.720Z,11.98
2017-04-25T09:14:03.307Z,11.95
2017-04-25T09:15:03.306Z,12.16
2017-04-25T09:16:02.982Z,12.16
2017-04-25T09:17:03.043Z,12.2
2017-04-25T09:18:02.944Z,11.99
2017-04-25T09:19:02.933Z,11.95
2017-04-25T09:20:03.202Z,12.46
2017-04-25T09:21:02.582Z,12.88
2017-04-25T09:22:03.182Z,12.78
2017-04-25T09:23:03.155Z,12.45
2017-04-25T09:24:02.843Z,12.16
2017-04-25T09:25:02.842Z,12.15
2017-04-25T09:26:03.112Z,12.37
2017-04-25T09:27:02.836Z,12.82
2017-04-25T09:28:03.084Z,13.37
2017-04-25T09:29:03.104Z,13.6
2017-04-25T09:30:02.435Z,14.02
2017-04-25T09:31:03.041Z,14.33
2017-04-25T09:32:02.714Z,14.2
2017-04-25T09:33:02.742Z,14.14
2017-04-25T09:34:03.003Z,13.63
2017-04-25T09:35:02.982Z,13.52
2017-04-25T09:36:02.668Z,13.38
2017-04-25T09:37:02.964Z,13.03
2017-04-25T09:38:02.622Z,13.03
2017-04-25T09:39:02.746Z,12.97
2017-04-25T09:40:02.605Z,13.15
2017-04-25T09:41:03.025Z,13.18
2017-04-25T09:42:02.573Z,13.33
2017-04-25T09:43:02.872Z,13
2017-04-25T09:44:02.554Z,12.82
2017-04-25T09:45:02.544Z,13.16
2017-04-25T09:46:02.833Z,13.1
2017-04-25T09:47:02.812Z,13.03
2017-04-25T09:48:02.865Z,12.85
2017-04-25T09:49:02.172Z,13.07
2017-04-25T09:50:02.455Z,12.5
2017-04-25T09:51:02.753Z,11.47
2017-04-25T09:52:02.726Z,11.72
2017-04-25T09:53:02.414Z,11.73
2017-04-25T09:54:02.701Z,11.73
2017-04-25T09:55:02.675Z,11.89
2017-04-25T09:56:02.364Z,11.86
2017-04-25T09:57:02.654Z,11.75
2017-04-25T09:58:02.336Z,11.79
2017-04-25T09:59:02.641Z,11.83
2017-04-25T10:00:02.703Z,11.98
2017-04-25T10:01:02.283Z,11.9
2017-04-25T10:02:02.262Z,11.91
2017-04-25T10:03:02.231Z,12.2
2017-04-25T10:04:02.544Z,12.17
2017-04-25T10:05:02.514Z,12.53
2017-04-25T10:06:02.225Z,12.86
2017-04-25T10:07:01.857Z,12.96
2017-04-25T10:08:02.155Z,13.18
2017-04-25T10:09:02.118Z,12.89
2017-04-25T10:10:02.420Z,12.53
2017-04-25T10:11:02.105Z,12.58
2017-04-25T10:12:02.382Z,12.81
2017-04-25T10:13:02.367Z,12.35
2017-04-25T10:14:02.339Z,12.24
2017-04-25T10:15:02.025Z,12.16
2017-04-25T10:16:02.015Z,12.28
2017-04-25T10:17:02.299Z,12.37
2017-04-25T10:18:01.982Z,12.45
2017-04-25T10:19:01.951Z,12.49
2017-04-25T10:20:02.000Z,12.52
2017-04-25T10:21:02.233Z,12.85
2017-04-25T10:22:01.923Z,13.08
2017-04-25T10:23:02.234Z,12.98
2017-04-25T10:24:02.213Z,12.88
2017-04-25T10:25:02.162Z,12.86
2017-04-25T10:26:02.234Z,12.76
2017-04-25T10:27:02.133Z,12.61
2017-04-25T10:28:02.163Z,12.1
2017-04-25T10:29:02.084Z,11.43
2017-04-25T10:30:02.083Z,11.57
2017-04-25T10:31:01.743Z,11.64
2017-04-25T10:32:02.144Z,11.78
2017-04-25T10:33:02.012Z,11.76
2017-04-25T10:34:02.034Z,11.5
2017-04-25T10:35:01.662Z,11.29
2017-04-25T10:36:01.702Z,11.03
2017-04-25T10:37:01.624Z,10.63
2017-04-25T10:38:01.981Z,10.64
2017-04-25T10:39:01.903Z,10.8
2017-04-25T10:40:01.621Z,10.85
2017-04-25T10:41:01.606Z,10.92
2017-04-25T10:42:01.570Z,10.81
2017-04-25T10:43:01.861Z,10.96
2017-04-25T10:44:01.493Z,11.08
2017-04-25T10:45:01.806Z,11.24
2017-04-25T10:46:01.767Z,11.48
2017-04-25T10:47:01.445Z,11.64
2017-04-25T10:48:01.474Z,11.86
2017-04-25T10:49:01.413Z,11.75
2017-04-25T10:50:01.384Z,11.9
2017-04-25T10:51:01.356Z,12.2
2017-04-25T10:52:01.385Z,12.43
2017-04-25T10:53:01.022Z,12.48
2017-04-25T10:54:01.382Z,12.67
2017-04-25T10:55:01.593Z,12.61
2017-04-25T10:56:01.582Z,12.64
2017-04-25T10:57:01.562Z,12.52
2017-04-25T10:58:01.286Z,12.83
2017-04-25T10:59:01.230Z,12.81
2017-04-25T11:00:00.902Z,12.34
2017-04-25T11:01:01.193Z,12.32
2017-04-25T11:02:01.516Z,12.35
2017-04-25T11:03:00.835Z,12.73
2017-04-25T11:04:01.129Z,12.79
2017-04-25T11:05:01.426Z,13.04
2017-04-25T11:06:00.802Z,13.4
2017-04-25T11:07:00.751Z,13.82
2017-04-25T11:08:01.061Z,13.75
2017-04-25T11:09:01.393Z,13.99
2017-04-25T11:10:01.364Z,13.56
2017-04-25T11:11:01.052Z,13.66
2017-04-25T11:12:01.283Z,13.93
2017-04-25T11:13:01.274Z,13.97
2017-04-25T11:14:00.965Z,13.88
2017-04-25T11:15:00.933Z,13.82
2017-04-25T11:16:01.266Z,13.44
2017-04-25T11:17:01.247Z,13.63
2017-04-25T11:18:00.900Z,13.49
2017-04-25T11:19:01.273Z,13.1
2017-04-25T11:20:01.145Z,12.46
2017-04-25T11:21:00.833Z,11.91
2017-04-25T11:22:01.235Z,11.5
2017-04-25T11:23:01.099Z,10.99
2017-04-25T11:24:00.794Z,10.62
2017-04-25T11:25:01.065Z,10.71
2017-04-25T11:26:01.052Z,10.55
2017-04-25T11:27:00.714Z,10.48
2017-04-25T11:28:00.699Z,10.18
2017-04-25T11:29:00.374Z,9.92
2017-04-25T11:30:00.986Z,9.85
2017-04-25T11:31:00.963Z,9.72
2017-04-25T11:32:00.615Z,9.68
2017-04-25T11:33:00.906Z,9.43
2017-04-25T11:34:01.007Z,9.43
2017-04-25T11:35:00.887Z,9.25
2017-04-25T11:36:00.539Z,9.31
2017-04-25T11:37:00.825Z,9.42
2017-04-25T11:38:00.516Z,9.42
2017-04-25T11:39:00.792Z,9.32
2017-04-25T11:40:00.467Z,9.46
2017-04-25T11:41:00.442Z,9.6
2017-04-25T11:42:00.724Z,9.61
2017-04-25T11:43:00.414Z,9.93
2017-04-25T11:44:00.385Z,10.18
2017-04-25T11:45:00.673Z,10.52
2017-04-25T11:46:00.354Z,11
2017-04-25T11:47:00.333Z,11.42
2017-04-25T11:48:00.301Z,11.84
2017-04-25T11:49:00.598Z,12.3
2017-04-25T11:50:00.567Z,12.73
2017-04-25T11:51:00.558Z,12.85
2017-04-25T11:52:00.246Z,13.21
2017-04-25T11:53:00.544Z,13.35
2017-04-25T11:54:00.493Z,13.63
2017-04-25T11:55:00.477Z,13.7
2017-04-25T11:56:00.161Z,13.82
2017-04-25T11:57:00.445Z,14.21
2017-04-25T11:58:00.433Z,14.58
2017-04-25T11:59:00.123Z,14.91
2017-04-25T12:00:00.434Z,14.54
2017-04-25T12:01:00.376Z,14.63
2017-04-25T12:02:00.360Z,14.85
2017-04-25T12:03:00.332Z,15.02
2017-04-25T12:04:00.321Z,14.77
2017-04-25T12:05:00.303Z,14.68
2017-04-25T12:06:00.290Z,14.85
2017-04-25T12:07:00.276Z,14.68
2017-04-25T12:07:59.636Z,14.6
2017-04-25T12:08:59.942Z,14.54
2017-04-25T12:10:00.225Z,14.44
2017-04-25T12:10:59.933Z,14.68
2017-04-25T12:12:00.205Z,15.03
2017-04-25T12:13:00.174Z,15.27
2017-04-25T12:14:00.160Z,15.35
2017-04-25T12:15:00.143Z,15.1
2017-04-25T12:15:59.825Z,14.92
2017-04-25T12:16:59.505Z,14.62
2017-04-25T12:18:00.082Z,14.6
2017-04-25T12:19:00.077Z,14.58
2017-04-25T12:20:00.074Z,14.57
2017-04-25T12:20:59.734Z,14.69
2017-04-25T12:22:00.061Z,14.44
2017-04-25T12:22:59.992Z,14.5
2017-04-25T12:23:59.986Z,14.36
2017-04-25T12:24:59.966Z,14.46
2017-04-25T12:25:59.647Z,14.98
2017-04-25T12:26:59.983Z,15.14
2017-04-25T12:27:59.938Z,15.28
2017-04-25T12:28:59.590Z,15.54
2017-04-25T12:29:59.581Z,15.79
2017-04-25T12:30:59.564Z,16.04
2017-04-25T12:31:59.863Z,16.07
2017-04-25T12:32:59.845Z,15.87
2017-04-25T12:33:59.523Z,15.5
2017-04-25T12:34:59.523Z,15.43
2017-04-25T12:35:59.501Z,15.4
2017-04-25T12:36:59.225Z,15.24
2017-04-25T12:37:59.462Z,15.35
2017-04-25T12:38:59.457Z,15.32
2017-04-25T12:39:59.730Z,15.39
2017-04-25T12:40:59.093Z,15.46
2017-04-25T12:41:59.684Z,15.28
2017-04-25T12:42:59.384Z,15.14
2017-04-25T12:43:59.355Z,15.29
2017-04-25T12:44:59.671Z,14.85
2017-04-25T12:45:59.314Z,14.62
2017-04-25T12:46:59.614Z,14.54
2017-04-25T12:47:58.992Z,14.38
2017-04-25T12:48:59.580Z,14.2
2017-04-25T12:49:59.562Z,14.08
2017-04-25T12:50:59.550Z,14.15
2017-04-25T12:51:59.236Z,14.29
2017-04-25T12:52:59.215Z,14.44
2017-04-25T12:53:59.513Z,14.73
2017-04-25T12:54:59.275Z,14.95
2017-04-25T12:55:59.489Z,15.12
2017-04-25T12:56:58.969Z,15.14
2017-04-25T12:57:59.442Z,15.52
2017-04-25T12:58:59.414Z,15.47
2017-04-25T12:59:59.425Z,15.75
2017-04-25T13:00:59.395Z,16.1
2017-04-25T13:01:59.368Z,16.1
2017-04-25T13:02:59.351Z,16.56
2017-04-25T13:03:59.351Z,16.87
2017-04-25T13:04:59.319Z,17.06
2017-04-25T13:05:59.063Z,17.12
2017-04-25T13:06:59.284Z,17.16
2017-04-25T13:07:59.284Z,17.14
2017-04-25T13:08:59.273Z,17.08
2017-04-25T13:09:58.959Z,17.27